Time;durP1;ratioP1;P1;durP2;ratioP2;P2;SDS_P1;SDS_P2;PMS_P1;PMS_P2;Temp;Humidity;BMP_temperature;BMP_pressure;BME280_temperature;BME280_humidity;BME280_pressure;Samples;Min_cycle;Max_cycle;Signal;HPM_P1;HPM_P2
2023/07/12 00:04:01;;;;;;;5.75;1.50;;;27.20;61.30;;;;;;10488178;28;20461;-36
2023/07/12 00:09:04;;;;;;;3.92;1.50;;;27.40;60.30;;;;;;10481354;28;20102;-36
2023/07/12 00:14:06;;;;;;;6.05;1.50;;;28.00;59.20;;;;;;10485503;28;20049;-38
2023/07/12 00:19:14;;;;;;;4.55;1.65;;;28.00;59.20;;;;;;10481160;28;20139;-37
2023/07/12 00:24:16;;;;;;;7.00;1.70;;;29.10;56.40;;;;;;10489411;28;20094;-33
2023/07/12 00:29:18;;;;;;;8.00;1.42;;;28.90;56.40;;;;;;10484377;28;20041;-37
2023/07/12 00:34:21;;;;;;;7.05;1.60;;;29.20;56.00;;;;;;10482366;28;20473;-38
2023/07/12 00:39:23;;;;;;;6.38;1.65;;;29.00;56.50;;;;;;10471625;28;20139;-37
2023/07/12 00:44:29;;;;;;;11.02;1.98;;;29.10;56.40;;;;;;10494979;28;20075;-36
2023/07/12 00:49:32;;;;;;;5.15;1.60;;;29.10;55.90;;;;;;10481632;28;20075;-37
2023/07/12 00:54:51;;;;;;;11.95;2.28;;;29.10;56.00;;;;;;10479781;28;20123;-37
2023/07/12 00:59:56;;;;;;;13.88;2.42;;;27.10;61.60;;;;;;10481140;28;20512;-37
2023/07/12 01:05:03;;;;;;;8.80;1.77;;;25.90;65.50;;;;;;10484171;28;20476;-37
2023/07/12 01:10:08;;;;;;;10.52;2.15;;;25.70;66.60;;;;;;10472441;28;20048;-38
2023/07/12 01:15:11;;;;;;;11.13;2.33;;;24.70;72.10;;;;;;10470630;28;20060;-36
2023/07/12 01:20:15;;;;;;;8.15;1.90;;;25.30;71.00;;;;;;10491685;28;20513;-40
2023/07/12 01:25:18;;;;;;;7.82;1.88;;;26.30;64.70;;;;;;10481584;28;20040;-37
2023/07/12 01:30:20;;;;;;;4.38;1.17;;;25.40;68.70;;;;;;10487876;28;20123;-35
2023/07/12 01:35:22;;;;;;;8.10;1.73;;;25.00;71.80;;;;;;10491120;28;20070;-40
2023/07/12 01:40:25;;;;;;;9.27;1.90;;;25.80;68.70;;;;;;10485038;28;20556;-37
2023/07/12 01:45:27;;;;;;;8.93;1.90;;;26.30;64.10;;;;;;10490809;28;20143;-40
2023/07/12 01:50:29;;;;;;;5.70;1.58;;;26.30;65.30;;;;;;10481775;28;20052;-36
2023/07/12 01:55:32;;;;;;;5.22;1.30;;;26.90;62.70;;;;;;10483960;28;20411;-39
2023/07/12 02:00:34;;;;;;;3.00;1.35;;;26.50;64.60;;;;;;10484603;28;20542;-36
2023/07/12 02:05:36;;;;;;;5.00;1.65;;;27.30;61.40;;;;;;10483485;28;20047;-38
2023/07/12 02:10:39;;;;;;;5.75;1.70;;;26.30;66.40;;;;;;10484065;28;20119;-38
2023/07/12 02:15:41;;;;;;;7.25;1.83;;;24.70;72.90;;;;;;10482222;28;20143;-36
2023/07/12 02:20:43;;;;;;;6.85;1.50;;;26.50;64.10;;;;;;10487450;28;20084;-36
2023/07/12 02:25:46;;;;;;;11.00;2.40;;;25.60;68.80;;;;;;10485568;28;20140;-36
2023/07/12 02:30:48;;;;;;;9.52;2.10;;;26.50;62.80;;;;;;10484474;28;20079;-37
2023/07/12 02:35:51;;;;;;;8.32;2.00;;;24.80;69.30;;;;;;10471102;28;20151;-36
2023/07/12 02:40:54;;;;;;;5.72;1.85;;;25.10;69.20;;;;;;10499228;28;20127;-39
2023/07/12 02:45:56;;;;;;;12.05;2.10;;;26.50;63.40;;;;;;10480251;28;20049;-36
2023/07/12 02:50:58;;;;;;;9.18;1.85;;;25.50;65.20;;;;;;10483146;28;20051;-36
2023/07/12 02:56:03;;;;;;;6.10;1.50;;;25.30;65.90;;;;;;10482801;28;20507;-39
2023/07/12 03:15:29;;;;;;;10.95;1.73;;;24.30;71.70;;;;;;10512505;27;20118;-36
2023/07/12 03:20:33;;;;;;;8.80;1.50;;;25.10;67.90;;;;;;10522979;28;20131;-36
2023/07/12 03:25:35;;;;;;;9.25;1.45;;;26.10;62.50;;;;;;10517551;28;20099;-41
2023/07/12 03:30:38;;;;;;;8.07;1.67;;;25.90;64.50;;;;;;10529216;28;20475;-36
2023/07/12 03:35:40;;;;;;;9.60;2.17;;;25.10;67.70;;;;;;10530080;28;20163;-38
2023/07/12 03:40:41;;;;;;;7.90;1.67;;;26.30;62.70;;;;;;10521772;28;20070;-44
2023/07/12 03:45:45;;;;;;;10.02;1.77;;;26.70;60.70;;;;;;10525633;28;20050;-36
2023/07/12 03:50:48;;;;;;;7.90;1.60;;;25.30;68.00;;;;;;10525680;28;20681;-36
2023/07/12 03:55:50;;;;;;;9.02;2.08;;;26.60;63.00;;;;;;10531788;28;20123;-37
2023/07/12 04:00:53;;;;;;;6.22;1.60;;;25.90;63.40;;;;;;10527913;28;21260;-38
2023/07/12 04:05:55;;;;;;;6.20;1.48;;;26.20;61.50;;;;;;10518555;28;20131;-34
2023/07/12 04:10:58;;;;;;;5.43;1.70;;;26.50;62.70;;;;;;10522327;28;20155;-37
2023/07/12 04:16:02;;;;;;;10.40;2.25;;;25.60;65.20;;;;;;10522747;28;20040;-36
2023/07/12 04:21:05;;;;;;;9.80;2.40;;;25.60;65.60;;;;;;10527177;28;20139;-41
2023/07/12 04:26:07;;;;;;;6.30;1.60;;;26.10;63.40;;;;;;10498510;28;20075;-42
2023/07/12 04:31:12;;;;;;;6.97;2.15;;;25.20;67.60;;;;;;10502191;28;20473;-41
2023/07/12 04:36:16;;;;;;;12.25;2.28;;;26.00;64.10;;;;;;10491356;28;20044;-35
2023/07/12 04:41:17;;;;;;;13.60;2.30;;;24.90;70.50;;;;;;10492982;28;20066;-39
2023/07/12 04:46:20;;;;;;;11.82;2.05;;;24.40;73.30;;;;;;10500978;28;20366;-36
2023/07/12 04:51:23;;;;;;;10.35;2.05;;;25.10;70.30;;;;;;10503671;28;20044;-38
2023/07/12 04:56:24;;;;;;;11.02;2.65;;;24.30;73.60;;;;;;10503966;28;20131;-37
2023/07/12 05:01:28;;;;;;;;;;;24.30;72.50;;;;;;10497057;28;20127;-36
2023/07/12 05:06:30;;;;;;;11.20;2.55;;;23.80;76.30;;;;;;10488882;28;19921;-36
2023/07/12 05:11:32;;;;;;;;;;;24.70;72.50;;;;;;10490070;28;20412;-32
2023/07/12 05:16:35;;;;;;;14.50;1.85;;;25.10;70.80;;;;;;10490740;28;20350;-39
2023/07/12 05:21:37;;;;;;;9.63;2.60;;;25.80;67.00;;;;;;10488557;28;20155;-37
2023/07/12 05:26:39;;;;;;;8.25;1.75;;;25.00;68.50;;;;;;10490329;28;20101;-36
2023/07/12 05:31:42;;;;;;;11.90;2.22;;;26.10;64.70;;;;;;10494690;28;20106;-39
2023/07/12 05:36:44;;;;;;;7.72;2.05;;;24.00;75.00;;;;;;10487238;28;20132;-42
2023/07/12 05:41:46;;;;;;;9.68;1.83;;;25.20;69.60;;;;;;10492738;28;20581;-36
2023/07/12 05:46:49;;;;;;;14.15;2.97;;;24.70;72.60;;;;;;10488925;28;20136;-42
2023/07/12 05:51:51;;;;;;;11.90;2.28;;;25.40;67.80;;;;;;10489021;28;20189;-41
2023/07/12 05:56:53;;;;;;;13.98;2.47;;;24.30;74.20;;;;;;10494208;28;20454;-41
2023/07/12 06:01:56;;;;;;;;;;;23.00;82.70;;;;;;10483036;28;20140;-39
2023/07/12 06:06:58;;;;;;;9.60;2.75;;;25.60;67.60;;;;;;10492851;28;19924;-37
2023/07/12 06:12:00;;;;;;;14.98;3.67;;;24.60;71.10;;;;;;10491809;28;20063;-41
2023/07/12 06:17:03;;;;;;;8.35;2.15;;;25.10;68.40;;;;;;10490079;28;20099;-39
2023/07/12 06:22:06;;;;;;;13.70;2.05;;;25.30;68.20;;;;;;10491402;28;20044;-35
2023/07/12 06:27:08;;;;;;;10.23;1.85;;;24.80;70.00;;;;;;10481456;28;20041;-35
2023/07/12 06:32:11;;;;;;;7.60;1.75;;;25.10;69.90;;;;;;10480116;28;20437;-39
2023/07/12 06:37:13;;;;;;;8.77;1.88;;;24.90;68.90;;;;;;10491072;28;20126;-35
2023/07/12 06:42:15;;;;;;;9.93;2.05;;;25.10;69.20;;;;;;10483286;28;20136;-40
2023/07/12 06:47:18;;;;;;;;;;;24.40;72.30;;;;;;10482227;28;20050;-40
2023/07/12 06:52:20;;;;;;;10.07;2.42;;;23.60;79.10;;;;;;10487262;28;19921;-38
2023/07/12 06:57:22;;;;;;;9.57;2.20;;;22.40;87.00;;;;;;10489474;28;20049;-37
2023/07/12 07:02:25;;;;;;;9.48;2.03;;;24.60;73.20;;;;;;10487544;28;20093;-37
2023/07/12 07:07:28;;;;;;;10.20;2.10;;;25.10;69.90;;;;;;10492606;28;20074;-38
2023/07/12 07:12:31;;;;;;;16.48;1.48;;;24.40;74.40;;;;;;10483031;28;20045;-38
2023/07/12 07:17:34;;;;;;;6.80;1.67;;;23.80;76.30;;;;;;10493989;28;20047;-38
2023/07/12 07:22:36;;;;;;;6.43;1.45;;;24.80;69.90;;;;;;10494508;28;20143;-38
2023/07/12 07:27:38;;;;;;;8.23;1.90;;;25.80;65.40;;;;;;10491034;28;20071;-39
2023/07/12 07:32:41;;;;;;;5.05;1.38;;;24.80;71.70;;;;;;10474293;28;20151;-38
2023/07/12 07:37:44;;;;;;;5.18;1.40;;;24.60;71.40;;;;;;10482278;28;20045;-38
2023/07/12 07:42:46;;;;;;;11.93;2.00;;;23.50;83.10;;;;;;10475830;28;20068;-43
2023/07/12 07:47:49;;;;;;;5.50;1.52;;;22.80;84.70;;;;;;10490289;28;20091;-39
2023/07/12 07:52:53;;;;;;;4.45;1.27;;;25.00;71.90;;;;;;10485714;28;20094;-40
2023/07/12 07:57:54;;;;;;;4.97;1.55;;;25.40;69.80;;;;;;10479573;28;20401;-37
2023/07/12 08:02:57;;;;;;;;;;;23.80;78.90;;;;;;10492835;28;20053;-35
2023/07/12 08:08:00;;;;;;;8.07;1.27;;;23.30;76.60;;;;;;10492913;28;19928;-40
2023/07/12 08:13:02;;;;;;;3.78;0.90;;;24.30;75.20;;;;;;10497892;28;20048;-36
2023/07/12 08:18:05;;;;;;;4.25;1.20;;;25.60;68.80;;;;;;10495838;28;20040;-37
2023/07/12 08:23:08;;;;;;;4.20;1.60;;;25.10;67.50;;;;;;10495584;28;20052;-41
2023/07/12 08:28:10;;;;;;;6.50;1.45;;;25.20;67.50;;;;;;10490860;28;20082;-37
2023/07/12 08:33:13;;;;;;;8.00;1.42;;;24.90;66.10;;;;;;10497587;28;20047;-38
2023/07/12 08:38:15;;;;;;;7.50;1.38;;;24.10;71.80;;;;;;10490419;28;20246;-38
2023/07/12 08:43:19;;;;;;;11.75;2.00;;;25.20;70.00;;;;;;10491310;28;20675;-37
2023/07/12 08:48:25;;;;;;;6.22;1.10;;;25.70;66.10;;;;;;10490817;28;20040;-40
2023/07/12 08:53:29;;;;;;;2.13;0.70;;;25.90;64.80;;;;;;10490094;28;20072;-32
2023/07/12 08:58:44;;;;;;;4.15;1.10;;;25.90;65.90;;;;;;10496027;28;20568;-34
2023/07/12 09:03:47;;;;;;;10.50;1.40;;;26.20;64.40;;;;;;10491345;28;20130;-35
2023/07/12 09:08:53;;;;;;;8.80;1.80;;;25.00;68.40;;;;;;10484064;28;20135;-35
2023/07/12 09:13:57;;;;;;;4.53;1.00;;;24.80;69.70;;;;;;10490315;28;20537;-39
2023/07/12 09:19:12;;;;;;;6.88;1.98;;;25.80;65.80;;;;;;10504754;28;20072;-38
2023/07/12 09:24:19;;;;;;;2.92;1.10;;;26.30;62.40;;;;;;10500075;28;20439;-39
2023/07/12 09:29:24;;;;;;;4.57;1.48;;;26.90;61.20;;;;;;10488671;28;20048;-43
2023/07/12 09:34:39;;;;;;;3.78;1.00;;;25.20;68.00;;;;;;10493295;28;20052;-38
2023/07/12 09:39:41;;;;;;;2.55;1.25;;;26.20;64.30;;;;;;10489576;28;20127;-36
2023/07/12 09:44:45;;;;;;;5.18;1.58;;;25.20;65.60;;;;;;10486620;28;20072;-43
2023/07/12 09:49:57;;;;;;;3.72;1.58;;;24.50;71.90;;;;;;10488326;28;20098;-40
2023/07/12 09:55:05;;;;;;;6.15;1.80;;;24.80;70.40;;;;;;10492423;28;20048;-42
2023/07/12 10:00:19;;;;;;;10.00;1.65;;;24.50;71.80;;;;;;10498581;28;20074;-41
2023/07/12 10:05:23;;;;;;;8.75;1.45;;;24.80;71.30;;;;;;10489397;28;20068;-37
2023/07/12 10:10:35;;;;;;;2.63;1.40;;;24.60;71.50;;;;;;10487635;28;20040;-41
2023/07/12 10:15:40;;;;;;;4.50;1.05;;;25.80;66.00;;;;;;10486393;28;20087;-36
2023/07/12 10:20:43;;;;;;;12.55;1.83;;;26.20;64.70;;;;;;10491487;28;20044;-35
2023/07/12 10:25:49;;;;;;;3.58;1.08;;;24.40;72.30;;;;;;10485881;28;20135;-36
2023/07/12 10:30:52;;;;;;;10.07;1.05;;;24.70;68.70;;;;;;10487552;28;20481;-38
2023/07/12 10:35:59;;;;;;;5.00;1.50;;;25.10;69.30;;;;;;10486472;28;20044;-35
2023/07/12 10:41:06;;;;;;;5.32;1.88;;;25.50;65.90;;;;;;10486665;28;20040;-38
2023/07/12 10:46:11;;;;;;;2.50;1.05;;;26.40;63.20;;;;;;10488837;28;20094;-39
2023/07/12 10:51:31;;;;;;;10.85;2.40;;;26.30;62.50;;;;;;10486630;28;21521;-42
2023/07/12 10:56:38;;;;;;;7.22;1.45;;;24.30;71.50;;;;;;10489015;28;20052;-39
2023/07/12 11:01:53;;;;;;;5.13;1.25;;;24.40;73.30;;;;;;10486104;28;20045;-39
2023/07/12 11:06:59;;;;;;;5.38;1.45;;;24.20;70.80;;;;;;10482497;28;20110;-39
2023/07/12 11:12:06;;;;;;;4.90;1.50;;;24.40;64.90;;;;;;10482801;28;20237;-37
2023/07/12 11:17:21;;;;;;;3.10;1.00;;;24.80;69.00;;;;;;10488315;28;20174;-35
2023/07/12 11:22:49;;;;;;;2.67;1.05;;;26.30;62.90;;;;;;10484172;28;20056;-42
2023/07/12 11:27:59;;;;;;;5.85;1.17;;;25.40;64.70;;;;;;10484286;28;20055;-37
2023/07/12 11:33:09;;;;;;;11.02;1.77;;;25.70;63.00;;;;;;10490365;28;20055;-37
2023/07/12 11:38:18;;;;;;;3.80;1.00;;;24.80;64.80;;;;;;10494751;28;20040;-38
2023/07/12 11:43:34;;;;;;;5.40;1.05;;;26.10;62.20;;;;;;10492804;28;20048;-43
2023/07/12 11:48:35;;;;;;;3.60;1.10;;;25.70;62.40;;;;;;10500472;28;20051;-41
2023/07/12 11:53:38;;;;;;;4.50;1.35;;;25.60;64.30;;;;;;10498639;28;20084;-38
2023/07/12 11:58:43;;;;;;;3.60;1.10;;;24.70;62.20;;;;;;10494620;28;20048;-35
2023/07/12 12:03:48;;;;;;;3.58;1.00;;;25.20;62.90;;;;;;10496255;28;20048;-39
2023/07/12 12:08:55;;;;;;;5.75;0.98;;;25.90;62.30;;;;;;10496392;28;20464;-38
2023/07/12 12:13:58;;;;;;;4.80;1.20;;;25.90;61.80;;;;;;10492891;28;20048;-40
2023/07/12 12:19:08;;;;;;;3.40;0.88;;;23.80;70.10;;;;;;10493352;28;20053;-36
2023/07/12 12:24:17;;;;;;;3.35;1.10;;;25.70;62.40;;;;;;10495538;28;21291;-34
2023/07/12 12:29:22;;;;;;;4.45;1.00;;;24.20;64.50;;;;;;10495247;28;20072;-35
2023/07/12 12:34:28;;;;;;;3.55;1.02;;;25.10;64.40;;;;;;10494411;28;20056;-42
2023/07/12 12:39:29;;;;;;;3.08;1.05;;;25.70;63.00;;;;;;10490400;28;20101;-37
2023/07/12 12:44:36;;;;;;;3.53;1.15;;;24.60;67.80;;;;;;10493759;28;20584;-40
2023/07/12 12:49:39;;;;;;;3.15;1.00;;;24.50;66.40;;;;;;10491968;28;20048;-40
2023/07/12 12:54:40;;;;;;;5.60;1.42;;;24.50;63.30;;;;;;10501102;28;20144;-35
2023/07/12 12:59:44;;;;;;;;;;;24.10;66.30;;;;;;10503933;28;20079;-42
2023/07/12 13:04:47;;;;;;;4.55;1.10;;;24.40;67.10;;;;;;10494740;28;20539;-36
2023/07/12 13:09:49;;;;;;;2.70;1.02;;;23.70;64.50;;;;;;10488685;28;20048;-37
2023/07/12 13:14:52;;;;;;;8.15;1.38;;;24.30;70.30;;;;;;10499002;28;20109;-37
2023/07/12 13:19:55;;;;;;;6.82;0.85;;;24.60;63.30;;;;;;10489658;28;20049;-42
2023/07/12 13:24:59;;;;;;;6.70;1.30;;;25.20;62.60;;;;;;10489281;28;20448;-38
2023/07/12 13:30:04;;;;;;;2.78;0.70;;;25.10;62.20;;;;;;10489875;28;20524;-36
2023/07/12 13:35:07;;;;;;;6.63;1.42;;;25.60;63.50;;;;;;10488997;28;20409;-40
2023/07/12 13:40:13;;;;;;;5.00;1.00;;;24.80;66.30;;;;;;10500483;28;20058;-36
2023/07/12 13:45:17;;;;;;;6.93;1.48;;;24.50;64.00;;;;;;10494993;28;20513;-37
2023/07/12 13:50:19;;;;;;;8.60;1.70;;;25.20;63.10;;;;;;10497775;28;20449;-41
2023/07/12 13:55:24;;;;;;;2.80;0.80;;;24.80;65.70;;;;;;10489791;28;20121;-36
2023/07/12 14:00:28;;;;;;;5.85;1.40;;;25.80;66.50;;;;;;10495518;28;20044;-40
2023/07/12 14:05:30;;;;;;;5.07;1.15;;;25.80;61.60;;;;;;10492110;28;20121;-41
2023/07/12 14:10:31;;;;;;;8.80;1.83;;;25.50;64.40;;;;;;10491307;28;20044;-38
2023/07/12 14:15:35;;;;;;;9.15;1.38;;;25.80;61.80;;;;;;10502002;28;20050;-35
2023/07/12 14:20:37;;;;;;;8.02;1.70;;;26.10;64.70;;;;;;10487842;28;20079;-37
2023/07/12 14:25:39;;;;;;;11.68;3.03;;;25.90;66.40;;;;;;10492716;28;20068;-39
2023/07/12 14:30:42;;;;;;;8.20;1.67;;;25.60;66.40;;;;;;10489940;28;20058;-36
2023/07/12 14:35:44;;;;;;;10.60;1.75;;;25.40;72.30;;;;;;10486342;28;20076;-38
2023/07/12 14:40:46;;;;;;;5.35;1.15;;;26.20;65.50;;;;;;10477618;28;20037;-38
2023/07/12 14:45:49;;;;;;;4.63;1.15;;;26.60;64.80;;;;;;10478832;28;20153;-38
2023/07/12 14:50:51;;;;;;;6.38;1.20;;;27.00;63.70;;;;;;10486667;28;20139;-40
2023/07/12 14:55:53;;;;;;;17.83;1.83;;;27.00;60.60;;;;;;10488909;28;20090;-37
2023/07/12 15:00:56;;;;;;;9.40;1.52;;;26.80;58.40;;;;;;10494084;28;20541;-42
2023/07/12 15:05:58;;;;;;;3.58;1.23;;;26.80;62.60;;;;;;10486033;28;20106;-37
2023/07/12 15:11:03;;;;;;;7.50;1.70;;;26.70;62.80;;;;;;10488458;28;20040;-40
2023/07/12 15:16:13;;;;;;;7.38;1.05;;;26.50;65.60;;;;;;10492093;28;20052;-38
2023/07/12 15:21:21;;;;;;;6.82;1.60;;;26.80;58.50;;;;;;10487139;28;20474;-43
2023/07/12 15:26:23;;;;;;;6.85;1.27;;;27.60;56.80;;;;;;10474809;28;20056;-41
2023/07/12 15:31:31;;;;;;;5.25;1.20;;;28.10;58.10;;;;;;10480780;28;20117;-38
2023/07/12 15:36:33;;;;;;;7.82;1.63;;;26.80;58.80;;;;;;10493791;28;20048;-37
2023/07/12 15:41:35;;;;;;;10.18;1.45;;;26.40;56.70;;;;;;10482064;28;20106;-38
2023/07/12 15:46:38;;;;;;;5.15;1.15;;;27.60;56.10;;;;;;10495207;28;20820;-39
2023/07/12 15:51:45;;;;;;;3.90;1.40;;;27.80;60.10;;;;;;10487267;28;20052;-38
2023/07/12 15:56:49;;;;;;;4.57;2.15;;;26.70;58.40;;;;;;10493746;28;20162;-38
2023/07/12 16:01:52;;;;;;;7.50;1.35;;;27.10;59.00;;;;;;10486032;28;20490;-41
2023/07/12 16:06:54;;;;;;;4.75;1.33;;;27.40;54.60;;;;;;10480974;28;20405;-42
2023/07/12 16:11:57;;;;;;;7.60;1.45;;;27.30;54.80;;;;;;10485026;28;20053;-41
2023/07/12 16:17:02;;;;;;;7.18;1.20;;;27.10;59.30;;;;;;10489044;28;20101;-38
2023/07/12 16:22:05;;;;;;;14.85;1.05;;;27.20;55.70;;;;;;10474582;28;20052;-38
2023/07/12 16:27:12;;;;;;;6.57;1.13;;;27.90;54.00;;;;;;10495148;28;20101;-38
2023/07/12 16:32:17;;;;;;;4.65;1.17;;;28.70;59.20;;;;;;10493993;28;20246;-35
2023/07/12 16:37:20;;;;;;;2.72;0.80;;;27.60;51.50;;;;;;10482967;28;20052;-37
2023/07/12 16:42:27;;;;;;;7.97;1.17;;;27.90;56.00;;;;;;10485600;28;20068;-38
2023/07/12 16:47:31;;;;;;;3.72;1.25;;;28.30;57.90;;;;;;10489058;28;20044;-37
2023/07/12 16:52:33;;;;;;;6.25;0.70;;;28.80;52.20;;;;;;10506069;28;20053;-40
2023/07/12 16:57:36;;;;;;;3.42;0.90;;;29.40;49.90;;;;;;10488205;28;20048;-36
2023/07/12 17:02:40;;;;;;;4.85;0.75;;;28.70;54.10;;;;;;10487921;28;20048;-40
2023/07/12 17:07:42;;;;;;;5.78;1.55;;;28.50;52.00;;;;;;10485020;28;20052;-38
2023/07/12 17:12:44;;;;;;;5.35;1.08;;;28.20;57.30;;;;;;10496240;28;20411;-40
2023/07/12 17:17:51;;;;;;;16.75;2.08;;;28.70;58.00;;;;;;10484365;28;20452;-44
2023/07/12 17:22:53;;;;;;;12.77;1.90;;;28.10;53.00;;;;;;10489530;28;20447;-38
2023/07/12 17:27:55;;;;;;;11.18;1.40;;;27.30;55.90;;;;;;10489045;28;20040;-41
2023/07/12 17:32:59;;;;;;;8.93;1.35;;;27.30;61.90;;;;;;10490189;28;20063;-40
2023/07/12 17:38:02;;;;;;;13.13;1.67;;;26.20;58.60;;;;;;10494864;28;20159;-37
2023/07/12 17:43:05;;;;;;;8.15;1.25;;;27.40;58.00;;;;;;10493471;28;20070;-39
2023/07/12 17:48:09;;;;;;;8.25;1.30;;;27.50;54.50;;;;;;10494548;28;20052;-38
2023/07/12 17:53:16;;;;;;;8.48;1.73;;;28.40;60.80;;;;;;10484948;28;20090;-35
2023/07/12 17:58:19;;;;;;;5.18;1.33;;;27.20;55.10;;;;;;10491812;28;20144;-41
2023/07/12 18:03:25;;;;;;;18.13;2.38;;;27.70;59.70;;;;;;10493000;28;20040;-38
2023/07/12 18:08:27;;;;;;;13.85;2.28;;;27.20;61.00;;;;;;10485592;28;20037;-41
2023/07/12 18:13:32;;;;;;;11.45;2.67;;;26.90;58.60;;;;;;10478623;28;20049;-39
2023/07/12 18:18:35;;;;;;;12.18;1.92;;;26.10;64.60;;;;;;10484960;28;20102;-37
2023/07/12 18:23:37;;;;;;;13.63;2.72;;;26.20;65.60;;;;;;10490487;28;20144;-36
2023/07/12 18:28:39;;;;;;;13.38;2.42;;;26.00;68.80;;;;;;10468544;28;20048;-37
2023/07/12 18:33:42;;;;;;;15.48;3.38;;;27.40;66.80;;;;;;10489606;28;20044;-40
2023/07/12 18:38:46;;;;;;;15.68;2.63;;;26.20;67.20;;;;;;10492809;28;20048;-40
2023/07/12 18:43:49;;;;;;;12.43;2.50;;;24.80;73.70;;;;;;10485964;28;20427;-37
2023/07/12 18:48:52;;;;;;;24.10;4.30;;;24.60;81.30;;;;;;10495187;28;20048;-42
2023/07/12 18:53:54;;;;;;;11.20;2.00;;;25.70;72.70;;;;;;10489603;28;20455;-41
2023/07/12 18:58:59;;;;;;;13.40;2.40;;;26.30;65.90;;;;;;10480669;28;20437;-42
2023/07/12 19:04:04;;;;;;;22.08;3.67;;;25.10;69.70;;;;;;10487189;28;20059;-37
2023/07/12 19:09:06;;;;;;;13.18;1.98;;;24.20;75.80;;;;;;10486638;28;20059;-43
2023/07/12 19:14:14;;;;;;;;;;;23.80;85.00;;;;;;10489996;28;20056;-37
2023/07/12 19:19:21;;;;;;;9.75;1.83;;;24.10;79.60;;;;;;10476838;28;20336;-35
2023/07/12 19:24:23;;;;;;;16.50;2.28;;;25.20;74.40;;;;;;10477287;28;20127;-40
2023/07/12 19:29:25;;;;;;;13.02;2.75;;;23.70;83.50;;;;;;10482230;28;20458;-40
2023/07/12 19:34:29;;;;;;;10.38;2.10;;;23.80;78.50;;;;;;10485227;28;20045;-38
2023/07/12 19:39:31;;;;;;;7.15;1.52;;;22.50;83.60;;;;;;10469486;28;20044;-41
2023/07/12 19:44:34;;;;;;;8.30;1.67;;;24.90;74.00;;;;;;10480506;28;20057;-42
2023/07/12 19:49:37;;;;;;;9.32;1.70;;;24.60;75.80;;;;;;10487972;28;20411;-40
2023/07/12 19:54:40;;;;;;;9.90;1.90;;;24.70;72.70;;;;;;10481418;28;20052;-36
2023/07/12 19:59:42;;;;;;;8.25;1.77;;;23.90;80.60;;;;;;10492023;28;20151;-39
2023/07/12 20:04:45;;;;;;;11.50;2.78;;;26.00;67.90;;;;;;10474355;28;20052;-39
2023/07/12 20:09:49;;;;;;;6.63;1.83;;;23.30;84.70;;;;;;10494734;28;20045;-39
2023/07/12 20:14:51;;;;;;;11.63;2.00;;;25.30;72.60;;;;;;10491825;28;20068;-41
2023/07/12 20:19:55;;;;;;;16.98;3.30;;;25.90;64.60;;;;;;10491426;28;20450;-38
2023/07/12 20:24:57;;;;;;;14.38;2.92;;;24.10;71.30;;;;;;10488740;28;20489;-41
2023/07/12 20:29:59;;;;;;;20.23;3.10;;;23.80;76.70;;;;;;10490666;28;20056;-39
2023/07/12 20:35:02;;;;;;;9.55;1.95;;;23.60;76.70;;;;;;10481623;28;20696;-39
2023/07/12 20:40:07;;;;;;;15.80;2.30;;;24.00;77.20;;;;;;10489145;28;20056;-43
2023/07/12 20:45:10;;;;;;;17.27;3.25;;;24.50;75.60;;;;;;10496418;28;20052;-36
2023/07/12 20:50:13;;;;;;;13.98;2.42;;;23.20;82.10;;;;;;10492628;28;20044;-35
2023/07/12 20:55:16;;;;;;;14.27;2.70;;;24.10;76.30;;;;;;10497919;28;20049;-38
2023/07/12 21:00:19;;;;;;;19.55;2.83;;;23.60;82.10;;;;;;10496452;28;20127;-36
2023/07/12 21:05:23;;;;;;;10.73;2.17;;;23.60;81.30;;;;;;10492921;28;20041;-43
2023/07/12 21:10:25;;;;;;;11.10;2.15;;;23.90;79.10;;;;;;10492604;28;20048;-38
2023/07/12 21:15:27;;;;;;;19.50;2.60;;;25.60;66.50;;;;;;10493350;28;20052;-39
2023/07/12 21:20:30;;;;;;;12.88;1.98;;;24.30;72.90;;;;;;10494621;28;20040;-35
2023/07/12 21:25:32;;;;;;;10.93;2.28;;;25.60;68.00;;;;;;10494006;28;20044;-37
2023/07/12 21:30:34;;;;;;;14.35;2.40;;;24.70;69.70;;;;;;10487675;28;20049;-39
2023/07/12 21:35:43;;;;;;;11.27;2.20;;;25.20;68.20;;;;;;10489517;28;20052;-36
2023/07/12 21:40:45;;;;;;;8.25;2.80;;;24.70;70.80;;;;;;10493074;28;20052;-42
2023/07/12 21:45:47;;;;;;;8.77;2.28;;;24.60;72.50;;;;;;10468276;28;20056;-42
2023/07/12 21:50:51;;;;;;;8.60;2.08;;;24.70;71.80;;;;;;10487932;28;20082;-38
2023/07/12 21:55:53;;;;;;;11.60;2.20;;;24.30;73.00;;;;;;10485949;28;20048;-39
2023/07/12 22:00:55;;;;;;;8.60;2.05;;;25.50;67.60;;;;;;10494188;28;20053;-37
2023/07/12 22:05:58;;;;;;;10.82;2.08;;;24.00;74.40;;;;;;10481379;28;20049;-35
2023/07/12 22:11:06;;;;;;;9.95;2.20;;;24.90;70.60;;;;;;10486507;28;20071;-37
2023/07/12 22:16:09;;;;;;;8.40;2.03;;;26.40;63.40;;;;;;10484949;28;20045;-37
2023/07/12 22:21:15;;;;;;;11.50;2.58;;;25.00;68.80;;;;;;10487022;28;20044;-42
2023/07/12 22:26:19;;;;;;;19.77;3.58;;;23.20;80.80;;;;;;10491391;28;20082;-40
2023/07/12 22:31:22;;;;;;;12.18;2.15;;;23.50;80.20;;;;;;10493447;28;20056;-39
2023/07/12 22:36:26;;;;;;;5.03;1.42;;;24.70;71.40;;;;;;10485606;28;20493;-40
2023/07/12 22:41:28;;;;;;;7.95;1.73;;;24.90;70.80;;;;;;10487246;28;20503;-44
2023/07/12 22:46:30;;;;;;;12.18;2.55;;;25.70;65.70;;;;;;10495556;28;20036;-37
2023/07/12 22:51:33;;;;;;;9.05;2.35;;;23.90;77.10;;;;;;10477794;28;20045;-41
2023/07/12 22:56:35;;;;;;;13.45;2.78;;;23.90;75.90;;;;;;10494119;28;20052;-38
2023/07/12 23:01:37;;;;;;;18.30;3.03;;;24.30;73.50;;;;;;10489086;28;20052;-37
2023/07/12 23:06:40;;;;;;;10.73;2.65;;;23.90;77.20;;;;;;10486240;28;20044;-36
2023/07/12 23:11:43;;;;;;;11.20;2.42;;;23.30;80.40;;;;;;10488502;28;20044;-36
2023/07/12 23:16:45;;;;;;;16.55;2.47;;;23.80;76.50;;;;;;10489583;28;20063;-39
2023/07/12 23:21:49;;;;;;;10.18;2.05;;;23.70;76.80;;;;;;10488333;28;20052;-37
2023/07/12 23:26:51;;;;;;;7.47;1.63;;;24.50;71.20;;;;;;10488714;28;20385;-41
2023/07/12 23:31:52;;;;;;;15.90;2.95;;;24.60;69.70;;;;;;10495368;28;20056;-41
2023/07/12 23:36:56;;;;;;;10.57;1.80;;;24.30;69.70;;;;;;10492709;28;20053;-39
2023/07/12 23:42:02;;;;;;;8.55;2.00;;;25.10;66.90;;;;;;10494483;28;20052;-40
2023/07/12 23:47:05;;;;;;;6.30;1.70;;;26.10;61.70;;;;;;10496383;28;20135;-39
2023/07/12 23:52:11;;;;;;;9.82;2.67;;;26.50;60.50;;;;;;10495456;28;20135;-37
2023/07/12 23:57:13;;;;;;;5.57;1.73;;;26.60;59.60;;;;;;10500006;28;20048;-38
